sensor_id;sensor_type;location;lat;lon;timestamp;P1;durP1;ratioP1;P2;durP2;ratioP2
63534;SDS011;55128;50.230;18.944;2023-04-01T00:03:08;7.95;;;4.50;;
63534;SDS011;55128;50.230;18.944;2023-04-01T00:08:09;8.35;;;4.40;;
63534;SDS011;55128;50.230;18.944;2023-04-01T00:13:09;6.72;;;4.10;;
63534;SDS011;55128;50.230;18.944;2023-04-01T00:18:10;7.22;;;4.00;;
63534;SDS011;55128;50.230;18.944;2023-04-01T00:23:11;7.35;;;3.17;;
63534;SDS011;55128;50.230;18.944;2023-04-01T00:28:12;8.27;;;3.72;;
63534;SDS011;55128;50.230;18.944;2023-04-01T00:33:12;5.70;;;3.50;;
63534;SDS011;55128;50.230;18.944;2023-04-01T00:38:13;5.63;;;3.15;;
63534;SDS011;55128;50.230;18.944;2023-04-01T00:43:18;7.45;;;3.88;;
63534;SDS011;55128;50.230;18.944;2023-04-01T00:48:22;7.13;;;3.45;;
63534;SDS011;55128;50.230;18.944;2023-04-01T00:53:25;6.00;;;3.55;;
63534;SDS011;55128;50.230;18.944;2023-04-01T00:58:29;8.45;;;3.85;;
63534;SDS011;55128;50.230;18.944;2023-04-01T01:03:33;7.80;;;4.05;;
63534;SDS011;55128;50.230;18.944;2023-04-01T01:14:07;6.47;;;4.57;;
63534;SDS011;55128;50.230;18.944;2023-04-01T01:24:26;7.40;;;4.13;;
63534;SDS011;55128;50.230;18.944;2023-04-01T01:35:16;6.43;;;4.32;;
63534;SDS011;55128;50.230;18.944;2023-04-01T01:40:22;7.88;;;4.32;;
63534;SDS011;55128;50.230;18.944;2023-04-01T01:45:26;9.93;;;4.43;;
63534;SDS011;55128;50.230;18.944;2023-04-01T01:50:27;5.35;;;3.65;;
63534;SDS011;55128;50.230;18.944;2023-04-01T01:55:30;6.80;;;3.97;;
63534;SDS011;55128;50.230;18.944;2023-04-01T02:00:33;5.60;;;4.10;;
63534;SDS011;55128;50.230;18.944;2023-04-01T02:05:35;7.05;;;3.83;;
63534;SDS011;55128;50.230;18.944;2023-04-01T02:10:37;6.68;;;4.00;;
63534;SDS011;55128;50.230;18.944;2023-04-01T02:15:42;7.35;;;3.97;;
63534;SDS011;55128;50.230;18.944;2023-04-01T02:20:47;6.50;;;4.15;;
63534;SDS011;55128;50.230;18.944;2023-04-01T02:25:49;7.13;;;4.40;;
63534;SDS011;55128;50.230;18.944;2023-04-01T02:30:50;7.28;;;4.78;;
63534;SDS011;55128;50.230;18.944;2023-04-01T02:35:52;7.57;;;4.53;;
63534;SDS011;55128;50.230;18.944;2023-04-01T02:40:56;8.48;;;5.15;;
63534;SDS011;55128;50.230;18.944;2023-04-01T02:45:59;7.03;;;5.10;;
63534;SDS011;55128;50.230;18.944;2023-04-01T02:51:01;7.88;;;4.35;;
63534;SDS011;55128;50.230;18.944;2023-04-01T02:56:01;7.00;;;4.20;;
63534;SDS011;55128;50.230;18.944;2023-04-01T03:01:01;7.03;;;3.95;;
63534;SDS011;55128;50.230;18.944;2023-04-01T03:06:09;5.78;;;3.67;;
63534;SDS011;55128;50.230;18.944;2023-04-01T03:11:12;8.10;;;3.97;;
63534;SDS011;55128;50.230;18.944;2023-04-01T03:16:13;5.65;;;3.45;;
63534;SDS011;55128;50.230;18.944;2023-04-01T03:26:15;5.45;;;3.50;;
63534;SDS011;55128;50.230;18.944;2023-04-01T03:31:16;5.53;;;3.17;;
63534;SDS011;55128;50.230;18.944;2023-04-01T03:36:17;9.20;;;3.42;;
63534;SDS011;55128;50.230;18.944;2023-04-01T03:41:18;3.83;;;2.75;;
63534;SDS011;55128;50.230;18.944;2023-04-01T03:46:19;5.18;;;2.72;;
63534;SDS011;55128;50.230;18.944;2023-04-01T03:51:19;5.88;;;3.22;;
63534;SDS011;55128;50.230;18.944;2023-04-01T03:56:20;5.57;;;3.30;;
63534;SDS011;55128;50.230;18.944;2023-04-01T04:01:21;7.43;;;3.10;;
63534;SDS011;55128;50.230;18.944;2023-04-01T04:06:22;6.18;;;3.10;;
63534;SDS011;55128;50.230;18.944;2023-04-01T04:11:23;5.93;;;2.63;;
63534;SDS011;55128;50.230;18.944;2023-04-01T04:16:24;6.25;;;3.15;;
63534;SDS011;55128;50.230;18.944;2023-04-01T04:21:24;5.30;;;3.05;;
63534;SDS011;55128;50.230;18.944;2023-04-01T04:26:24;5.33;;;3.10;;
63534;SDS011;55128;50.230;18.944;2023-04-01T04:31:25;4.55;;;3.08;;
63534;SDS011;55128;50.230;18.944;2023-04-01T04:36:26;4.25;;;3.42;;
63534;SDS011;55128;50.230;18.944;2023-04-01T04:41:27;8.23;;;4.13;;
63534;SDS011;55128;50.230;18.944;2023-04-01T04:46:27;6.75;;;4.38;;
63534;SDS011;55128;50.230;18.944;2023-04-01T04:51:27;6.95;;;3.50;;
63534;SDS011;55128;50.230;18.944;2023-04-01T04:56:28;5.93;;;4.20;;
63534;SDS011;55128;50.230;18.944;2023-04-01T05:01:28;5.68;;;3.90;;
63534;SDS011;55128;50.230;18.944;2023-04-01T05:06:29;7.60;;;5.10;;
63534;SDS011;55128;50.230;18.944;2023-04-01T05:11:29;12.93;;;6.28;;
63534;SDS011;55128;50.230;18.944;2023-04-01T05:16:30;10.45;;;5.45;;
63534;SDS011;55128;50.230;18.944;2023-04-01T05:21:31;9.63;;;4.95;;
63534;SDS011;55128;50.230;18.944;2023-04-01T05:26:31;6.97;;;4.45;;
63534;SDS011;55128;50.230;18.944;2023-04-01T05:31:32;6.32;;;4.50;;
63534;SDS011;55128;50.230;18.944;2023-04-01T05:36:34;5.13;;;3.60;;
63534;SDS011;55128;50.230;18.944;2023-04-01T05:41:36;6.03;;;3.13;;
63534;SDS011;55128;50.230;18.944;2023-04-01T05:46:37;6.85;;;3.30;;
63534;SDS011;55128;50.230;18.944;2023-04-01T05:51:37;6.22;;;3.30;;
63534;SDS011;55128;50.230;18.944;2023-04-01T05:56:37;7.77;;;3.40;;
63534;SDS011;55128;50.230;18.944;2023-04-01T06:01:38;5.70;;;3.10;;
63534;SDS011;55128;50.230;18.944;2023-04-01T06:06:39;6.18;;;3.00;;
63534;SDS011;55128;50.230;18.944;2023-04-01T06:49:56;4.40;;;3.00;;
63534;SDS011;55128;50.230;18.944;2023-04-01T07:05:50;8.95;;;3.58;;
63534;SDS011;55128;50.230;18.944;2023-04-01T07:11:02;5.80;;;3.60;;
63534;SDS011;55128;50.230;18.944;2023-04-01T07:16:07;7.53;;;4.20;;
63534;SDS011;55128;50.230;18.944;2023-04-01T07:26:44;7.13;;;3.88;;
63534;SDS011;55128;50.230;18.944;2023-04-01T07:37:17;8.07;;;5.20;;
63534;SDS011;55128;50.230;18.944;2023-04-01T07:42:37;8.25;;;4.55;;
63534;SDS011;55128;50.230;18.944;2023-04-01T07:48:00;8.40;;;5.20;;
63534;SDS011;55128;50.230;18.944;2023-04-01T07:53:25;5.88;;;4.60;;
63534;SDS011;55128;50.230;18.944;2023-04-01T07:58:45;6.30;;;4.78;;
63534;SDS011;55128;50.230;18.944;2023-04-01T08:09:09;6.97;;;4.78;;
63534;SDS011;55128;50.230;18.944;2023-04-01T08:25:08;7.53;;;4.20;;
63534;SDS011;55128;50.230;18.944;2023-04-01T08:30:21;7.72;;;4.53;;
63534;SDS011;55128;50.230;18.944;2023-04-01T08:41:10;7.03;;;3.33;;
63534;SDS011;55128;50.230;18.944;2023-04-01T08:46:38;7.63;;;4.20;;
63534;SDS011;55128;50.230;18.944;2023-04-01T08:57:31;7.88;;;4.20;;
63534;SDS011;55128;50.230;18.944;2023-04-01T09:03:07;6.55;;;4.18;;
63534;SDS011;55128;50.230;18.944;2023-04-01T09:08:28;7.60;;;4.10;;
63534;SDS011;55128;50.230;18.944;2023-04-01T09:13:41;5.90;;;3.88;;
63534;SDS011;55128;50.230;18.944;2023-04-01T09:29:30;5.43;;;3.40;;
63534;SDS011;55128;50.230;18.944;2023-04-01T09:40:42;3.92;;;2.58;;
63534;SDS011;55128;50.230;18.944;2023-04-01T09:46:06;3.38;;;2.25;;
63534;SDS011;55128;50.230;18.944;2023-04-01T10:30:02;2.70;;;1.88;;
63534;SDS011;55128;50.230;18.944;2023-04-01T10:35:20;4.65;;;2.25;;
63534;SDS011;55128;50.230;18.944;2023-04-01T10:45:42;2.83;;;1.75;;
63534;SDS011;55128;50.230;18.944;2023-04-01T11:12:45;2.05;;;1.38;;
63534;SDS011;55128;50.230;18.944;2023-04-01T11:39:47;2.00;;;0.93;;
63534;SDS011;55128;50.230;18.944;2023-04-01T11:45:50;2.10;;;1.15;;
63534;SDS011;55128;50.230;18.944;2023-04-01T11:50:38;3.17;;;1.63;;
63534;SDS011;55128;50.230;18.944;2023-04-01T12:18:14;3.10;;;1.80;;
63534;SDS011;55128;50.230;18.944;2023-04-01T12:23:38;3.15;;;1.80;;
63534;SDS011;55128;50.230;18.944;2023-04-01T12:49:24;2.60;;;1.45;;
63534;SDS011;55128;50.230;18.944;2023-04-01T13:21:15;2.72;;;1.60;;
63534;SDS011;55128;50.230;18.944;2023-04-01T14:03:43;3.70;;;2.30;;
63534;SDS011;55128;50.230;18.944;2023-04-01T14:09:11;4.05;;;1.88;;
63534;SDS011;55128;50.230;18.944;2023-04-01T14:25:27;6.28;;;3.92;;
63534;SDS011;55128;50.230;18.944;2023-04-01T14:36:18;2.72;;;2.00;;
63534;SDS011;55128;50.230;18.944;2023-04-01T14:51:50;4.13;;;2.30;;
63534;SDS011;55128;50.230;18.944;2023-04-01T15:02:22;4.70;;;2.50;;
63534;SDS011;55128;50.230;18.944;2023-04-01T15:13:04;7.03;;;3.45;;
63534;SDS011;55128;50.230;18.944;2023-04-01T15:18:35;9.90;;;6.25;;
63534;SDS011;55128;50.230;18.944;2023-04-01T15:24:00;5.63;;;3.22;;
63534;SDS011;55128;50.230;18.944;2023-04-01T15:45:36;7.18;;;3.95;;
63534;SDS011;55128;50.230;18.944;2023-04-01T15:50:44;7.47;;;4.72;;
63534;SDS011;55128;50.230;18.944;2023-04-01T15:56:41;7.10;;;4.80;;
63534;SDS011;55128;50.230;18.944;2023-04-01T16:01:39;5.75;;;4.40;;
63534;SDS011;55128;50.230;18.944;2023-04-01T16:23:24;6.63;;;3.95;;
63534;SDS011;55128;50.230;18.944;2023-04-01T16:28:40;5.78;;;3.58;;
63534;SDS011;55128;50.230;18.944;2023-04-01T16:33:52;7.53;;;4.90;;
63534;SDS011;55128;50.230;18.944;2023-04-01T16:44:27;8.20;;;3.30;;
63534;SDS011;55128;50.230;18.944;2023-04-01T16:49:29;6.18;;;3.55;;
63534;SDS011;55128;50.230;18.944;2023-04-01T17:00:15;7.85;;;4.30;;
63534;SDS011;55128;50.230;18.944;2023-04-01T17:05:16;9.20;;;4.32;;
63534;SDS011;55128;50.230;18.944;2023-04-01T17:10:23;8.68;;;4.30;;
63534;SDS011;55128;50.230;18.944;2023-04-01T17:21:23;8.23;;;5.30;;
63534;SDS011;55128;50.230;18.944;2023-04-01T17:26:37;9.73;;;5.50;;
63534;SDS011;55128;50.230;18.944;2023-04-01T17:42:21;11.57;;;6.47;;
63534;SDS011;55128;50.230;18.944;2023-04-01T17:47:41;11.18;;;6.22;;
63534;SDS011;55128;50.230;18.944;2023-04-01T18:03:32;11.77;;;8.15;;
63534;SDS011;55128;50.230;18.944;2023-04-01T18:30:18;11.88;;;8.77;;
63534;SDS011;55128;50.230;18.944;2023-04-01T18:51:22;14.70;;;8.88;;
63534;SDS011;55128;50.230;18.944;2023-04-01T18:56:29;13.73;;;8.45;;
63534;SDS011;55128;50.230;18.944;2023-04-01T19:06:58;11.43;;;6.93;;
63534;SDS011;55128;50.230;18.944;2023-04-01T19:28:30;15.50;;;11.10;;
63534;SDS011;55128;50.230;18.944;2023-04-01T19:33:50;13.73;;;10.20;;
63534;SDS011;55128;50.230;18.944;2023-04-01T19:44:14;11.50;;;9.70;;
63534;SDS011;55128;50.230;18.944;2023-04-01T19:55:22;30.63;;;21.83;;
63534;SDS011;55128;50.230;18.944;2023-04-01T20:00:41;27.67;;;21.85;;
63534;SDS011;55128;50.230;18.944;2023-04-01T20:05:50;27.17;;;18.95;;
63534;SDS011;55128;50.230;18.944;2023-04-01T20:11:12;32.55;;;23.90;;
63534;SDS011;55128;50.230;18.944;2023-04-01T20:16:19;29.90;;;21.63;;
63534;SDS011;55128;50.230;18.944;2023-04-01T20:21:33;31.88;;;22.67;;
63534;SDS011;55128;50.230;18.944;2023-04-01T20:26:38;29.75;;;21.63;;
63534;SDS011;55128;50.230;18.944;2023-04-01T20:31:42;27.88;;;19.65;;
63534;SDS011;55128;50.230;18.944;2023-04-01T20:52:52;22.10;;;15.52;;
63534;SDS011;55128;50.230;18.944;2023-04-01T20:58:04;23.40;;;15.68;;
63534;SDS011;55128;50.230;18.944;2023-04-01T21:19:36;23.98;;;16.42;;
63534;SDS011;55128;50.230;18.944;2023-04-01T21:29:58;41.45;;;26.00;;
63534;SDS011;55128;50.230;18.944;2023-04-01T21:35:29;27.17;;;19.80;;
63534;SDS011;55128;50.230;18.944;2023-04-01T22:08:47;23.70;;;18.15;;
63534;SDS011;55128;50.230;18.944;2023-04-01T22:13:57;26.25;;;17.90;;
63534;SDS011;55128;50.230;18.944;2023-04-01T22:24:53;27.13;;;20.85;;
63534;SDS011;55128;50.230;18.944;2023-04-01T22:35:04;32.58;;;23.83;;
63534;SDS011;55128;50.230;18.944;2023-04-01T22:40:47;34.10;;;24.70;;
63534;SDS011;55128;50.230;18.944;2023-04-01T22:45:53;34.72;;;25.20;;
63534;SDS011;55128;50.230;18.944;2023-04-01T22:51:05;35.67;;;26.20;;
63534;SDS011;55128;50.230;18.944;2023-04-01T22:56:15;37.20;;;28.40;;
63534;SDS011;55128;50.230;18.944;2023-04-01T23:01:21;36.72;;;28.02;;
63534;SDS011;55128;50.230;18.944;2023-04-01T23:06:28;37.92;;;27.20;;
63534;SDS011;55128;50.230;18.944;2023-04-01T23:16:50;41.30;;;28.17;;
63534;SDS011;55128;50.230;18.944;2023-04-01T23:22:29;39.28;;;29.25;;
63534;SDS011;55128;50.230;18.944;2023-04-01T23:27:40;41.55;;;29.10;;
63534;SDS011;55128;50.230;18.944;2023-04-01T23:32:53;41.70;;;28.52;;
63534;SDS011;55128;50.230;18.944;2023-04-01T23:37:53;43.88;;;30.13;;
63534;SDS011;55128;50.230;18.944;2023-04-01T23:42:54;43.47;;;29.67;;
63534;SDS011;55128;50.230;18.944;2023-04-01T23:47:55;41.33;;;30.40;;
63534;SDS011;55128;50.230;18.944;2023-04-01T23:53:00;41.17;;;30.70;;
